Time;durP1;ratioP1;P1;durP2;ratioP2;P2;SDS_P1;SDS_P2;PMS_P1;PMS_P2;Temp;Humidity;BMP_temperature;BMP_pressure;BME280_temperature;BME280_humidity;BME280_pressure;Samples;Min_cycle;Max_cycle;Signal;HPM_P1;HPM_P2
2022/07/28 00:00:42;;;;;;;3.40;1.80;;;18.70;98.20;;;;;;5050742;28;20490;-71
2022/07/28 00:03:09;;;;;;;2.50;1.30;;;18.70;98.00;;;;;;5051297;28;20464;-71
2022/07/28 00:05:36;;;;;;;2.50;1.40;;;18.70;98.20;;;;;;5051477;28;21112;-72
2022/07/28 00:08:03;;;;;;;2.23;1.40;;;18.70;98.10;;;;;;5050931;28;20462;-71
2022/07/28 00:10:31;;;;;;;1.50;1.40;;;18.70;97.90;;;;;;5050958;28;20595;-71
2022/07/28 00:12:58;;;;;;;2.93;1.30;;;18.70;98.20;;;;;;5050939;28;20456;-72
2022/07/28 00:15:25;;;;;;;2.33;1.93;;;18.70;98.30;;;;;;5051518;28;20484;-71
2022/07/28 00:17:52;;;;;;;1.83;1.47;;;18.60;98.30;;;;;;5051190;28;20997;-71
2022/07/28 00:20:19;;;;;;;2.57;1.80;;;18.60;98.60;;;;;;5051302;28;20555;-71
2022/07/28 00:22:46;;;;;;;3.60;2.03;;;18.50;98.50;;;;;;5051429;28;20460;-71
2022/07/28 00:25:14;;;;;;;2.10;1.70;;;18.50;98.80;;;;;;5050975;28;20460;-72
2022/07/28 00:27:42;;;;;;;1.40;1.30;;;18.50;99.00;;;;;;5051187;28;20460;-72
2022/07/28 00:30:09;;;;;;;1.80;1.60;;;18.40;99.00;;;;;;5050400;28;20480;-72
2022/07/28 00:32:36;;;;;;;2.13;1.53;;;18.40;99.10;;;;;;5051152;28;20843;-71
2022/07/28 00:35:03;;;;;;;1.60;1.30;;;18.30;99.30;;;;;;5051024;28;20518;-71
2022/07/28 00:37:30;;;;;;;2.20;1.87;;;18.30;99.30;;;;;;5051173;28;20556;-72
2022/07/28 00:39:57;;;;;;;2.77;1.90;;;18.20;99.00;;;;;;5050528;28;20959;-72
2022/07/28 00:42:23;;;;;;;3.63;1.70;;;18.20;98.70;;;;;;5050851;28;20843;-72
2022/07/28 00:44:51;;;;;;;1.93;1.80;;;18.20;99.20;;;;;;5051038;28;20479;-72
2022/07/28 00:47:18;;;;;;;2.17;1.97;;;18.10;99.40;;;;;;5050770;28;20483;-72
2022/07/28 00:49:47;;;;;;;3.30;1.47;;;18.10;99.10;;;;;;5050072;28;20487;-71
2022/07/28 00:52:16;;;;;;;3.70;2.00;;;18.10;99.00;;;;;;5050769;28;20518;-72
2022/07/28 00:54:43;;;;;;;2.20;1.73;;;18.00;98.60;;;;;;5050452;28;20486;-72
2022/07/28 00:57:09;;;;;;;2.63;1.50;;;18.00;98.70;;;;;;5050905;28;20472;-71
2022/07/28 00:59:36;;;;;;;1.30;1.20;;;18.00;98.80;;;;;;5049421;28;20963;-72
2022/07/28 01:02:05;;;;;;;1.60;1.50;;;18.00;99.00;;;;;;5050894;28;20466;-72
2022/07/28 01:04:32;;;;;;;1.70;1.60;;;18.00;98.90;;;;;;5050133;28;21124;-72
2022/07/28 01:07:08;;;;;;;3.20;1.70;;;18.00;99.00;;;;;;5050494;28;21009;-72
2022/07/28 01:09:44;;;;;;;1.87;1.53;;;17.90;99.20;;;;;;5049405;28;20516;-71
2022/07/28 01:12:22;;;;;;;1.93;1.67;;;17.90;99.30;;;;;;5050750;28;21016;-72
2022/07/28 01:14:51;;;;;;;2.27;1.70;;;17.80;99.20;;;;;;5050352;28;20476;-71
2022/07/28 01:17:27;;;;;;;2.13;1.93;;;17.80;99.70;;;;;;5050280;28;20487;-72
2022/07/28 01:20:04;;;;;;;1.73;1.63;;;17.80;99.90;;;;;;5049894;28;20464;-72
2022/07/28 01:22:35;;;;;;;1.57;1.37;;;17.70;99.60;;;;;;5049936;28;20460;-71
2022/07/28 01:25:13;;;;;;;1.70;1.60;;;17.60;99.90;;;;;;5050481;28;20464;-71
2022/07/28 01:27:52;;;;;;;1.70;1.60;;;17.60;99.90;;;;;;5049929;28;20467;-72
2022/07/28 01:30:39;;;;;;;3.03;1.80;;;17.50;99.90;;;;;;5049771;28;20484;-72
2022/07/28 01:33:12;;;;;;;1.70;1.60;;;17.40;99.90;;;;;;5049672;28;20515;-71
2022/07/28 01:35:45;;;;;;;1.67;1.57;;;17.40;99.90;;;;;;5050045;28;20476;-72
2022/07/28 01:38:12;;;;;;;2.40;1.57;;;17.30;99.90;;;;;;5050042;28;20888;-71
2022/07/28 01:40:44;;;;;;;1.63;1.53;;;17.20;99.90;;;;;;5049638;28;20464;-72
2022/07/28 01:43:15;;;;;;;1.70;1.60;;;17.20;99.90;;;;;;5050357;28;20456;-70
2022/07/28 01:45:45;;;;;;;1.80;1.70;;;17.10;99.90;;;;;;5049580;28;20491;-71
2022/07/28 01:48:14;;;;;;;1.80;1.67;;;17.10;99.90;;;;;;5050219;28;20460;-71
2022/07/28 01:50:46;;;;;;;2.60;1.80;;;17.00;99.90;;;;;;5048981;28;20479;-72
2022/07/28 01:53:15;;;;;;;1.70;1.60;;;17.00;99.90;;;;;;5050163;28;20493;-72
2022/07/28 01:55:44;;;;;;;2.23;1.70;;;17.00;99.90;;;;;;5049374;28;20491;-70
2022/07/28 01:58:12;;;;;;;1.87;1.63;;;16.90;99.90;;;;;;5050144;28;20460;-73
2022/07/28 02:00:41;;;;;;;2.87;2.07;;;16.90;99.90;;;;;;5049282;28;20463;-71
2022/07/28 02:03:10;;;;;;;1.60;1.50;;;16.80;99.90;;;;;;5050541;28;20464;-71
2022/07/28 02:05:39;;;;;;;1.70;1.50;;;16.80;99.90;;;;;;5050473;28;20484;-71
2022/07/28 02:08:07;;;;;;;2.03;1.73;;;16.70;99.90;;;;;;5049944;28;20464;-71
2022/07/28 02:10:36;;;;;;;1.40;1.30;;;16.60;99.90;;;;;;5049564;28;20483;-70
2022/07/28 02:13:03;;;;;;;2.33;1.70;;;16.60;99.90;;;;;;5050289;28;20463;-71
2022/07/28 02:15:31;;;;;;;2.90;1.97;;;16.60;99.90;;;;;;5049875;28;20480;-71
2022/07/28 02:17:59;;;;;;;1.63;1.53;;;16.50;99.90;;;;;;5049624;28;20494;-71
2022/07/28 02:20:28;;;;;;;1.70;1.60;;;16.50;99.90;;;;;;5049117;28;20460;-71
2022/07/28 02:22:57;;;;;;;2.47;1.80;;;16.50;99.90;;;;;;5049817;28;20456;-70
2022/07/28 02:25:24;;;;;;;2.13;1.67;;;16.40;99.90;;;;;;5049453;28;20480;-71
2022/07/28 02:27:56;;;;;;;3.07;1.90;;;16.40;99.90;;;;;;5049672;28;20470;-71
2022/07/28 02:30:29;;;;;;;3.00;2.40;;;16.40;99.90;;;;;;5048934;28;20484;-71
2022/07/28 02:33:01;;;;;;;2.07;1.87;;;16.30;99.90;;;;;;5050329;28;20460;-71
2022/07/28 02:35:33;;;;;;;2.07;1.90;;;16.30;99.90;;;;;;5049259;28;20490;-71
2022/07/28 02:38:05;;;;;;;2.20;2.00;;;16.20;99.90;;;;;;5049568;28;20947;-70
2022/07/28 02:40:36;;;;;;;2.17;1.80;;;16.20;99.90;;;;;;5049105;28;20966;-71
2022/07/28 02:43:03;;;;;;;2.13;1.90;;;16.20;99.90;;;;;;5049436;28;20963;-70
2022/07/28 02:45:33;;;;;;;2.40;2.00;;;16.10;99.90;;;;;;5050484;28;20484;-71
2022/07/28 02:48:04;;;;;;;2.00;1.83;;;16.00;99.90;;;;;;5052810;28;20468;-71
2022/07/28 02:50:33;;;;;;;2.13;1.93;;;16.00;99.90;;;;;;5052573;28;20503;-71
2022/07/28 02:53:02;;;;;;;2.90;2.10;;;16.00;99.90;;;;;;5052684;28;20464;-71
2022/07/28 02:55:30;;;;;;;2.40;1.87;;;16.00;99.90;;;;;;5053151;28;20515;-71
2022/07/28 02:57:58;;;;;;;2.03;1.80;;;15.90;99.90;;;;;;5052874;28;20526;-71
2022/07/28 03:00:26;;;;;;;2.10;1.90;;;15.90;99.90;;;;;;5052015;28;20468;-71
2022/07/28 03:02:54;;;;;;;2.07;1.80;;;15.90;99.90;;;;;;5052926;28;20951;-71
2022/07/28 03:05:21;;;;;;;2.43;2.23;;;15.90;99.90;;;;;;5052590;28;20491;-71
2022/07/28 03:07:51;;;;;;;2.03;1.83;;;15.90;99.90;;;;;;5052554;28;20460;-71
2022/07/28 03:10:24;;;;;;;2.47;2.07;;;15.80;99.90;;;;;;5052152;28;20479;-71
2022/07/28 03:12:51;;;;;;;2.87;1.97;;;15.80;99.90;;;;;;5052607;28;21055;-70
2022/07/28 03:15:18;;;;;;;2.57;2.20;;;15.80;99.90;;;;;;5052635;28;20486;-71
2022/07/28 03:17:45;;;;;;;1.90;1.70;;;15.80;99.90;;;;;;5052409;28;20464;-70
2022/07/28 03:20:12;;;;;;;3.10;1.97;;;15.80;99.90;;;;;;5052114;28;20983;-71
2022/07/28 03:22:39;;;;;;;2.20;2.00;;;15.80;99.90;;;;;;5052088;28;20470;-71
2022/07/28 03:25:15;;;;;;;2.03;1.80;;;15.80;99.90;;;;;;5052441;28;20460;-70
2022/07/28 03:27:46;;;;;;;1.80;1.70;;;15.80;99.90;;;;;;5051901;28;20459;-71
2022/07/28 03:30:16;;;;;;;2.40;1.97;;;15.80;99.90;;;;;;5051785;28;20842;-71
2022/07/28 03:32:48;;;;;;;2.60;1.70;;;15.80;99.90;;;;;;5051196;28;20464;-71
2022/07/28 03:35:14;;;;;;;3.07;2.20;;;15.80;99.90;;;;;;5049201;28;20460;-71
2022/07/28 03:37:46;;;;;;;2.33;2.13;;;15.80;99.90;;;;;;5050852;28;20943;-71
2022/07/28 03:40:15;;;;;;;2.37;2.07;;;15.80;99.90;;;;;;5048553;28;20994;-72
2022/07/28 03:42:46;;;;;;;3.83;2.47;;;15.70;99.90;;;;;;5050897;28;20856;-72
2022/07/28 03:45:13;;;;;;;2.07;1.80;;;15.70;99.90;;;;;;5048222;28;20492;-71
2022/07/28 03:47:49;;;;;;;2.70;1.93;;;15.70;99.90;;;;;;5050656;28;20452;-71
2022/07/28 03:50:15;;;;;;;2.40;2.20;;;15.70;99.90;;;;;;5048322;28;20462;-71
2022/07/28 03:52:42;;;;;;;1.80;1.30;;;15.70;99.90;;;;;;5050436;28;20194;-72
2022/07/28 03:55:11;;;;;;;1.90;1.70;;;15.70;99.90;;;;;;5051039;28;20459;-71
2022/07/28 03:57:39;;;;;;;2.70;1.77;;;15.70;99.90;;;;;;5050968;28;20460;-71
2022/07/28 04:00:07;;;;;;;2.00;1.70;;;15.70;99.90;;;;;;5050365;28;20471;-71
2022/07/28 04:02:34;;;;;;;1.70;1.60;;;15.70;99.90;;;;;;5050564;28;20459;-73
2022/07/28 04:05:01;;;;;;;2.30;2.10;;;15.70;99.90;;;;;;5051080;28;20459;-72
2022/07/28 04:07:27;;;;;;;2.20;2.00;;;15.70;99.90;;;;;;5050339;28;20459;-72
2022/07/28 04:09:54;;;;;;;2.47;1.77;;;15.70;99.90;;;;;;5049618;28;20641;-71
2022/07/28 04:12:21;;;;;;;2.17;1.80;;;15.70;99.90;;;;;;5069449;23;20496;-68
2022/07/28 04:14:49;;;;;;;2.83;2.53;;;15.70;99.90;;;;;;5061782;28;20462;-69
2022/07/28 04:17:16;;;;;;;4.23;1.97;;;15.80;99.90;;;;;;5060676;28;20532;-68
2022/07/28 04:19:43;;;;;;;2.73;2.30;;;15.70;99.90;;;;;;5053823;28;20492;-69
2022/07/28 04:22:09;;;;;;;5.07;2.33;;;15.70;99.90;;;;;;5053114;28;20484;-69
2022/07/28 04:24:36;;;;;;;1.70;1.60;;;15.70;99.90;;;;;;5067826;28;20466;-69
2022/07/28 04:27:03;;;;;;;2.53;2.30;;;15.70;99.90;;;;;;5060687;28;20488;-69
2022/07/28 04:29:29;;;;;;;2.07;1.87;;;15.70;99.90;;;;;;5049186;28;20479;-68
2022/07/28 04:31:57;;;;;;;2.33;2.13;;;15.70;99.90;;;;;;5048730;28;20463;-67
2022/07/28 04:34:24;;;;;;;1.90;1.40;;;15.70;99.90;;;;;;5048343;28;20824;-68
2022/07/28 04:36:51;;;;;;;2.43;1.70;;;15.70;99.90;;;;;;5048640;28;20506;-69
2022/07/28 04:39:18;;;;;;;2.30;1.73;;;15.70;99.90;;;;;;5048170;28;21004;-67
2022/07/28 04:41:45;;;;;;;2.20;1.80;;;15.80;99.90;;;;;;5048457;28;20863;-68
2022/07/28 04:44:12;;;;;;;2.23;2.03;;;15.80;99.90;;;;;;5048811;28;20837;-68
2022/07/28 04:46:38;;;;;;;1.87;1.63;;;15.80;99.90;;;;;;5050937;28;20484;-67
2022/07/28 04:49:07;;;;;;;2.13;1.93;;;15.90;99.90;;;;;;5050880;28;20464;-68
2022/07/28 04:51:33;;;;;;;1.80;1.40;;;15.90;99.90;;;;;;5050297;28;21347;-68
2022/07/28 04:54:00;;;;;;;4.30;1.90;;;15.90;99.90;;;;;;5051029;28;20878;-69
2022/07/28 04:56:27;;;;;;;1.97;1.70;;;15.90;99.90;;;;;;5050487;28;20987;-67
2022/07/28 04:58:54;;;;;;;3.60;2.30;;;16.00;99.90;;;;;;5050684;28;20471;-68
2022/07/28 05:01:22;;;;;;;1.57;1.47;;;16.00;99.90;;;;;;5050111;28;20857;-69
2022/07/28 05:03:49;;;;;;;2.67;1.60;;;16.00;99.90;;;;;;5050496;28;20464;-69
2022/07/28 05:06:17;;;;;;;2.83;2.17;;;16.10;99.90;;;;;;5050750;28;20484;-68
2022/07/28 05:08:44;;;;;;;3.90;3.47;;;16.10;99.90;;;;;;5049757;28;20514;-67
2022/07/28 05:11:10;;;;;;;5.00;2.10;;;16.10;99.90;;;;;;5050183;28;20467;-68
2022/07/28 05:13:37;;;;;;;1.90;1.50;;;16.20;99.90;;;;;;5050132;28;20511;-69
2022/07/28 05:16:04;;;;;;;2.20;2.00;;;16.20;99.90;;;;;;5050600;28;20991;-69
2022/07/28 05:18:31;;;;;;;2.00;1.57;;;16.20;99.90;;;;;;5050199;28;20459;-68
2022/07/28 05:20:58;;;;;;;4.93;1.67;;;16.30;99.90;;;;;;5050097;28;20480;-69
2022/07/28 05:23:26;;;;;;;1.83;1.60;;;16.30;99.90;;;;;;5050486;28;20974;-69
2022/07/28 05:25:53;;;;;;;2.03;1.63;;;16.30;99.90;;;;;;5050191;28;20483;-69
2022/07/28 05:28:19;;;;;;;2.03;1.83;;;16.40;99.90;;;;;;5050340;28;20462;-69
2022/07/28 05:30:46;;;;;;;2.67;2.23;;;16.50;99.90;;;;;;5049726;28;20832;-69
2022/07/28 05:33:15;;;;;;;3.10;2.03;;;16.50;99.90;;;;;;5050432;28;20463;-69
2022/07/28 05:35:41;;;;;;;5.03;1.93;;;16.50;99.90;;;;;;5049925;28;20906;-69
2022/07/28 05:38:08;;;;;;;2.20;2.00;;;16.50;99.90;;;;;;5050461;28;20467;-68
2022/07/28 05:40:36;;;;;;;1.80;1.67;;;16.50;99.90;;;;;;5049266;28;20471;-69
2022/07/28 05:43:03;;;;;;;2.37;2.17;;;16.60;99.90;;;;;;5050514;28;20484;-68
2022/07/28 05:45:29;;;;;;;2.60;1.97;;;16.60;99.90;;;;;;5050424;28;20490;-68
2022/07/28 05:47:56;;;;;;;2.27;1.90;;;16.60;99.90;;;;;;5049812;28;20463;-69
2022/07/28 05:50:24;;;;;;;2.10;1.73;;;16.60;99.90;;;;;;5049802;28;20460;-68
2022/07/28 05:52:50;;;;;;;3.23;2.03;;;16.60;99.90;;;;;;5050015;28;20460;-68
2022/07/28 05:55:17;;;;;;;1.97;1.80;;;16.60;99.90;;;;;;5050118;28;20487;-68
2022/07/28 05:57:46;;;;;;;3.03;2.43;;;16.60;99.90;;;;;;5050011;28;20460;-68
2022/07/28 06:00:15;;;;;;;2.40;2.20;;;16.60;99.90;;;;;;5049594;28;20472;-69
2022/07/28 06:02:44;;;;;;;6.63;2.37;;;16.60;99.90;;;;;;5049914;28;20488;-68
2022/07/28 06:05:11;;;;;;;5.50;2.70;;;16.70;99.90;;;;;;5049956;28;20487;-68
2022/07/28 06:07:38;;;;;;;2.40;1.80;;;16.70;99.90;;;;;;5049985;28;20467;-69
2022/07/28 06:10:05;;;;;;;2.10;1.90;;;16.80;99.90;;;;;;5048941;28;20498;-68
2022/07/28 06:12:39;;;;;;;1.87;1.70;;;16.90;99.90;;;;;;5048847;28;20464;-68
2022/07/28 06:15:11;;;;;;;4.13;2.10;;;16.90;99.90;;;;;;5049471;28;20468;-69
2022/07/28 06:17:38;;;;;;;3.00;2.10;;;17.10;99.90;;;;;;5049625;28;20471;-69
2022/07/28 06:20:05;;;;;;;6.13;2.43;;;17.20;99.90;;;;;;5050242;28;20471;-68
2022/07/28 06:22:40;;;;;;;3.17;2.37;;;17.30;99.90;;;;;;5053616;28;20488;-69
2022/07/28 06:25:11;;;;;;;2.40;2.20;;;17.30;99.90;;;;;;5053358;28;20470;-68
2022/07/28 06:27:37;;;;;;;3.27;2.30;;;17.40;99.90;;;;;;5053161;28;20455;-68
2022/07/28 06:30:07;;;;;;;3.20;2.90;;;17.50;99.90;;;;;;5052607;28;20471;-69
2022/07/28 06:32:33;;;;;;;2.90;2.53;;;17.60;99.90;;;;;;5052963;28;20456;-69
2022/07/28 06:35:00;;;;;;;2.97;2.70;;;17.70;99.90;;;;;;5053223;28;20460;-68
2022/07/28 06:37:27;;;;;;;3.57;3.27;;;17.90;99.90;;;;;;5052811;28;20464;-69
2022/07/28 06:39:53;;;;;;;3.87;3.50;;;18.00;99.90;;;;;;5052566;28;20468;-68
2022/07/28 06:42:20;;;;;;;2.83;2.63;;;18.10;99.90;;;;;;5052660;28;20495;-69
2022/07/28 06:44:47;;;;;;;3.13;2.83;;;18.20;99.90;;;;;;5053010;28;20467;-69
2022/07/28 06:47:15;;;;;;;4.60;3.23;;;18.30;99.90;;;;;;5052670;28;20495;-69
2022/07/28 06:49:41;;;;;;;3.57;3.27;;;18.40;99.90;;;;;;5052352;28;20460;-69
2022/07/28 06:52:08;;;;;;;3.63;3.30;;;18.50;99.90;;;;;;5052849;28;20694;-69
2022/07/28 06:54:35;;;;;;;3.80;3.50;;;18.60;99.90;;;;;;5052687;28;20463;-69
2022/07/28 06:57:02;;;;;;;4.90;3.60;;;18.70;99.90;;;;;;5052657;28;21022;-69
2022/07/28 06:59:29;;;;;;;3.70;3.37;;;18.80;99.90;;;;;;5051920;28;20464;-68
2022/07/28 07:02:00;;;;;;;4.07;3.23;;;18.90;99.90;;;;;;5052841;28;20480;-69
2022/07/28 07:04:28;;;;;;;5.30;3.57;;;19.00;99.90;;;;;;5052378;28;20947;-69
2022/07/28 07:06:55;;;;;;;3.80;3.27;;;19.00;99.90;;;;;;5052499;28;20489;-69
2022/07/28 07:09:21;;;;;;;3.70;3.10;;;19.10;99.90;;;;;;5051576;28;20460;-69
2022/07/28 07:11:48;;;;;;;3.97;3.60;;;19.20;99.90;;;;;;5052649;28;20468;-69
2022/07/28 07:14:15;;;;;;;4.43;3.70;;;19.30;99.90;;;;;;5052478;28;20463;-69
2022/07/28 07:16:41;;;;;;;4.77;4.10;;;19.40;99.90;;;;;;5052243;28;20491;-69
2022/07/28 07:19:08;;;;;;;3.77;3.47;;;19.40;99.90;;;;;;5052030;28;20463;-67
2022/07/28 07:21:36;;;;;;;3.47;3.17;;;19.50;99.90;;;;;;5052023;28;20487;-69
2022/07/28 07:24:03;;;;;;;3.57;3.03;;;19.60;99.90;;;;;;5052392;28;20506;-69
2022/07/28 07:26:30;;;;;;;4.43;3.50;;;19.60;99.90;;;;;;5052282;28;20491;-69
2022/07/28 07:28:57;;;;;;;3.60;3.07;;;19.80;99.90;;;;;;5052282;28;20467;-69
2022/07/28 07:31:23;;;;;;;3.60;3.30;;;19.90;99.90;;;;;;5050667;28;20456;-69
2022/07/28 07:33:50;;;;;;;4.20;3.80;;;19.90;99.90;;;;;;5052052;28;20955;-69
2022/07/28 07:36:17;;;;;;;4.20;3.80;;;20.00;99.90;;;;;;5051988;28;21252;-69
2022/07/28 07:38:45;;;;;;;3.73;3.40;;;20.00;99.90;;;;;;5051864;28;20475;-69
2022/07/28 07:41:12;;;;;;;4.03;3.40;;;20.10;99.90;;;;;;5051231;28;20460;-69
2022/07/28 07:43:38;;;;;;;3.60;3.30;;;20.20;99.90;;;;;;5051658;28;20535;-69
2022/07/28 07:46:06;;;;;;;4.47;3.80;;;20.30;99.90;;;;;;5052051;28;20508;-69
2022/07/28 07:48:33;;;;;;;3.50;3.07;;;20.40;99.90;;;;;;5051661;28;20963;-69
2022/07/28 07:51:00;;;;;;;3.70;3.40;;;20.40;99.90;;;;;;5051455;28;21124;-69
2022/07/28 07:53:26;;;;;;;4.50;3.70;;;20.60;99.90;;;;;;5051724;28;20456;-68
2022/07/28 07:55:54;;;;;;;4.33;3.60;;;20.70;99.90;;;;;;5052024;28;20487;-68
2022/07/28 07:58:21;;;;;;;6.23;4.00;;;20.70;99.90;;;;;;5051581;28;20471;-68
2022/07/28 08:00:48;;;;;;;5.47;3.43;;;20.80;99.90;;;;;;5050814;28;20471;-69
2022/07/28 08:03:15;;;;;;;4.27;3.70;;;20.90;99.90;;;;;;5051376;28;20880;-69
2022/07/28 08:05:42;;;;;;;3.83;3.53;;;21.00;99.90;;;;;;5051211;28;20503;-69
2022/07/28 08:08:10;;;;;;;4.10;3.70;;;21.20;99.90;;;;;;5051156;28;20468;-69
2022/07/28 08:10:38;;;;;;;4.93;3.57;;;21.30;99.90;;;;;;5050602;28;20475;-69
2022/07/28 08:13:07;;;;;;;3.60;3.30;;;21.40;99.90;;;;;;5051119;28;20468;-69
2022/07/28 08:15:34;;;;;;;3.67;3.33;;;21.50;99.90;;;;;;5050305;28;20981;-68
2022/07/28 08:18:02;;;;;;;3.60;3.30;;;21.50;99.90;;;;;;5050538;28;20456;-69
2022/07/28 08:20:29;;;;;;;3.60;3.30;;;21.60;99.90;;;;;;5050298;28;20460;-69
2022/07/28 08:22:57;;;;;;;3.77;3.33;;;21.70;99.90;;;;;;5050615;28;20484;-69
2022/07/28 08:25:24;;;;;;;4.60;3.20;;;21.70;99.90;;;;;;5051365;28;20536;-69
2022/07/28 08:27:51;;;;;;;4.03;3.63;;;21.90;99.90;;;;;;5050902;28;20459;-69
2022/07/28 08:30:19;;;;;;;4.20;3.63;;;22.00;99.90;;;;;;5050318;28;20952;-69
2022/07/28 08:32:46;;;;;;;3.97;3.60;;;22.10;99.90;;;;;;5050764;28;20460;-69
2022/07/28 08:35:13;;;;;;;4.07;3.63;;;22.20;99.90;;;;;;5050585;28;20944;-69
2022/07/28 08:37:40;;;;;;;4.20;3.70;;;22.20;99.90;;;;;;5051114;28;20559;-69
2022/07/28 08:40:13;;;;;;;4.53;4.13;;;22.30;99.90;;;;;;5045215;28;20472;-69
2022/07/28 08:42:49;;;;;;;5.93;4.03;;;22.40;99.90;;;;;;5030582;28;20907;-69
2022/07/28 08:45:17;;;;;;;3.70;3.40;;;22.50;99.90;;;;;;5029637;28;20523;-69
2022/07/28 08:47:47;;;;;;;3.60;3.30;;;22.60;99.90;;;;;;5030351;28;20465;-69
2022/07/28 08:50:14;;;;;;;3.87;3.57;;;22.80;99.90;;;;;;5029109;28;20464;-69
2022/07/28 08:52:45;;;;;;;3.70;3.40;;;22.90;99.90;;;;;;5030704;28;20494;-69
2022/07/28 08:55:13;;;;;;;4.30;3.90;;;23.00;99.90;;;;;;5029601;28;20466;-69
2022/07/28 08:57:42;;;;;;;4.50;4.10;;;23.10;99.90;;;;;;5030360;28;20599;-69
2022/07/28 09:00:10;;;;;;;4.10;3.73;;;23.20;99.90;;;;;;5029287;28;20992;-69
2022/07/28 09:02:41;;;;;;;3.77;3.43;;;23.30;99.90;;;;;;5029882;28;20537;-69
2022/07/28 09:05:10;;;;;;;4.30;3.90;;;23.50;99.90;;;;;;5030424;28;20459;-69
2022/07/28 09:07:37;;;;;;;4.40;3.90;;;23.60;99.90;;;;;;5030167;28;21046;-69
2022/07/28 09:10:05;;;;;;;3.67;3.37;;;23.70;99.90;;;;;;5029458;28;20470;-70
2022/07/28 09:12:33;;;;;;;4.10;3.77;;;23.80;99.90;;;;;;5029626;28;20968;-69
2022/07/28 09:15:02;;;;;;;6.67;3.10;;;23.80;99.90;;;;;;5029583;28;20466;-69
2022/07/28 09:17:28;;;;;;;3.70;3.40;;;23.90;99.90;;;;;;5029915;28;20470;-68
2022/07/28 09:19:56;;;;;;;4.03;3.73;;;24.00;99.90;;;;;;5029427;28;20467;-68
2022/07/28 09:22:24;;;;;;;4.07;3.67;;;24.00;99.90;;;;;;5041772;28;20514;-70
2022/07/28 09:24:51;;;;;;;3.90;3.60;;;24.20;99.90;;;;;;5049239;28;20834;-69
2022/07/28 09:27:17;;;;;;;3.97;3.50;;;24.20;99.90;;;;;;5050030;28;20856;-68
2022/07/28 09:29:46;;;;;;;4.07;3.67;;;24.40;99.90;;;;;;5049638;28;20476;-70
2022/07/28 09:32:14;;;;;;;4.60;4.17;;;24.60;99.90;;;;;;5049664;28;20474;-69
2022/07/28 09:34:41;;;;;;;3.80;3.50;;;24.70;99.90;;;;;;5050717;28;20462;-68
2022/07/28 09:37:17;;;;;;;4.20;3.80;;;24.80;99.90;;;;;;5049220;28;20480;-68
2022/07/28 09:39:46;;;;;;;5.53;3.60;;;25.00;99.90;;;;;;5049575;28;20474;-69
2022/07/28 09:42:13;;;;;;;4.30;3.90;;;25.10;99.90;;;;;;5049759;28;20466;-69
2022/07/28 09:44:40;;;;;;;4.23;3.83;;;25.20;99.90;;;;;;5050089;28;20474;-69
2022/07/28 09:47:21;;;;;;;4.37;3.97;;;25.40;99.90;;;;;;5047312;28;20484;-69
2022/07/28 09:49:48;;;;;;;4.00;3.67;;;25.40;99.90;;;;;;5049018;28;20488;-69
2022/07/28 09:52:27;;;;;;;3.73;3.40;;;25.60;99.90;;;;;;5049675;28;20837;-69
2022/07/28 09:55:01;;;;;;;4.90;4.17;;;25.60;99.80;;;;;;5051362;28;20466;-68
2022/07/28 09:57:28;;;;;;;3.77;3.47;;;25.70;99.90;;;;;;5053847;28;20947;-69
2022/07/28 09:59:55;;;;;;;4.53;4.13;;;25.80;99.90;;;;;;5052622;28;20459;-69
2022/07/28 10:02:26;;;;;;;3.90;3.50;;;25.90;99.40;;;;;;5053425;28;20494;-69
2022/07/28 10:04:53;;;;;;;4.77;3.47;;;26.00;98.80;;;;;;5053951;28;20467;-70
2022/07/28 10:07:20;;;;;;;4.37;3.37;;;26.00;99.40;;;;;;5053088;28;20486;-70
2022/07/28 10:09:56;;;;;;;3.10;2.90;;;25.90;99.70;;;;;;5053108;28;20954;-69
2022/07/28 10:12:25;;;;;;;4.17;3.77;;;25.80;99.00;;;;;;5052786;28;20477;-69
2022/07/28 10:14:54;;;;;;;4.70;3.27;;;25.80;99.30;;;;;;5053668;28;20609;-70
2022/07/28 10:17:25;;;;;;;3.80;3.50;;;25.70;99.70;;;;;;5053181;28;20855;-68
2022/07/28 10:19:53;;;;;;;4.90;3.60;;;25.90;99.90;;;;;;5052537;28;21007;-70
2022/07/28 10:22:22;;;;;;;4.03;3.70;;;26.10;98.90;;;;;;5053296;28;20843;-69
2022/07/28 10:24:52;;;;;;;3.93;3.63;;;26.30;99.30;;;;;;5052706;28;20466;-68
2022/07/28 10:27:20;;;;;;;5.50;3.50;;;26.50;99.10;;;;;;5053433;28;20479;-69
2022/07/28 10:29:53;;;;;;;4.20;3.60;;;26.60;97.70;;;;;;5052491;28;20467;-69
2022/07/28 10:32:20;;;;;;;4.37;3.60;;;26.60;98.50;;;;;;5052867;28;20483;-70
2022/07/28 10:34:53;;;;;;;4.17;3.77;;;26.50;97.90;;;;;;5053421;28;20459;-69
2022/07/28 10:37:23;;;;;;;3.40;3.10;;;26.50;97.80;;;;;;5051899;28;20479;-69
2022/07/28 10:39:56;;;;;;;3.13;2.93;;;26.60;99.20;;;;;;5052596;28;20463;-69
2022/07/28 10:42:24;;;;;;;3.97;3.60;;;26.80;98.70;;;;;;5052275;28;20470;-69
2022/07/28 10:44:54;;;;;;;3.80;3.50;;;27.00;98.80;;;;;;5052902;28;20837;-68
2022/07/28 10:47:22;;;;;;;3.73;3.33;;;27.10;98.20;;;;;;5052941;28;20487;-68
2022/07/28 10:49:49;;;;;;;4.80;4.40;;;27.20;98.60;;;;;;5051519;28;20460;-70
2022/07/28 10:52:17;;;;;;;4.30;3.80;;;27.30;97.40;;;;;;5052450;28;20468;-69
2022/07/28 10:54:49;;;;;;;3.57;3.30;;;27.40;98.50;;;;;;5052302;28;20499;-69
2022/07/28 10:57:17;;;;;;;3.73;3.43;;;27.40;97.80;;;;;;5052326;28;20480;-69
2022/07/28 11:00:07;;;;;;;3.80;3.47;;;27.20;97.00;;;;;;5051990;28;20460;-69
2022/07/28 11:02:45;;;;;;;3.40;3.20;;;27.10;97.60;;;;;;5052109;28;20874;-68
2022/07/28 11:05:33;;;;;;;3.40;3.10;;;27.10;97.70;;;;;;5052308;28;20493;-69
2022/07/28 11:08:02;;;;;;;4.57;3.70;;;27.00;97.30;;;;;;5051326;28;20966;-68
2022/07/28 11:10:30;;;;;;;3.80;3.50;;;26.90;98.40;;;;;;5052233;28;20827;-69
2022/07/28 11:12:59;;;;;;;3.43;3.13;;;26.80;96.90;;;;;;5048053;28;21152;-69
2022/07/28 11:15:34;;;;;;;4.60;3.50;;;26.90;97.60;;;;;;5049946;28;20488;-69
2022/07/28 11:18:06;;;;;;;4.90;3.43;;;27.10;98.00;;;;;;5052224;28;20464;-68
2022/07/28 11:21:09;;;;;;;3.43;3.13;;;27.40;97.70;;;;;;5051605;28;20526;-69
2022/07/28 11:23:53;;;;;;;3.93;3.63;;;27.70;97.30;;;;;;4971118;28;20509;-70
2022/07/28 11:26:37;;;;;;;6.40;3.13;;;27.70;96.60;;;;;;4969831;28;20487;-69
2022/07/28 11:29:18;;;;;;;3.67;3.37;;;27.70;96.40;;;;;;5027046;28;20518;-69
2022/07/28 11:31:59;;;;;;;3.27;2.97;;;27.70;96.00;;;;;;5051756;28;20467;-70
2022/07/28 11:34:26;;;;;;;3.90;3.60;;;27.70;96.10;;;;;;5052100;28;20471;-68
2022/07/28 11:37:01;;;;;;;3.70;3.40;;;27.50;95.90;;;;;;5051385;28;20491;-70
2022/07/28 11:39:29;;;;;;;4.03;3.73;;;27.40;96.80;;;;;;5051090;28;20459;-70
2022/07/28 11:41:56;;;;;;;4.20;3.90;;;27.30;95.40;;;;;;5052106;28;20464;-70
2022/07/28 11:44:27;;;;;;;3.67;3.37;;;27.20;95.60;;;;;;5050815;28;20473;-69
2022/07/28 11:47:14;;;;;;;4.13;3.73;;;27.10;96.00;;;;;;5051661;28;20863;-70
2022/07/28 11:49:43;;;;;;;3.60;3.30;;;27.10;96.70;;;;;;5050347;28;20468;-69
2022/07/28 11:52:19;;;;;;;4.07;3.77;;;27.40;97.70;;;;;;5051288;28;20464;-70
2022/07/28 11:54:51;;;;;;;3.30;3.10;;;27.60;96.10;;;;;;5051368;28;20452;-69
2022/07/28 11:57:20;;;;;;;3.77;3.30;;;27.80;96.10;;;;;;5051369;28;20570;-69
2022/07/28 11:59:52;;;;;;;5.57;3.50;;;28.00;96.90;;;;;;5050641;28;20466;-69
2022/07/28 12:02:21;;;;;;;3.50;3.20;;;28.10;96.70;;;;;;5050920;28;20472;-69
2022/07/28 12:05:11;;;;;;;3.53;3.23;;;28.10;96.10;;;;;;5051653;28;20484;-69
2022/07/28 12:07:49;;;;;;;3.50;3.20;;;28.10;96.30;;;;;;5047458;28;20833;-68
2022/07/28 12:10:34;;;;;;;3.57;3.30;;;28.40;96.10;;;;;;5050611;28;20567;-70
2022/07/28 12:13:03;;;;;;;3.90;3.00;;;28.40;95.50;;;;;;5050711;28;20562;-69
2022/07/28 12:15:30;;;;;;;3.83;3.53;;;28.40;95.70;;;;;;5050791;28;20520;-70
2022/07/28 12:17:58;;;;;;;3.67;3.33;;;28.50;93.90;;;;;;5049012;28;20551;-69
2022/07/28 12:20:30;;;;;;;4.03;3.53;;;28.60;95.60;;;;;;5050595;28;21009;-68
2022/07/28 12:23:05;;;;;;;3.10;2.90;;;28.80;93.80;;;;;;5051268;28;20471;-69
2022/07/28 12:25:44;;;;;;;5.13;3.60;;;28.90;94.20;;;;;;5050858;28;20460;-69
2022/07/28 12:28:21;;;;;;;3.50;3.20;;;28.60;94.90;;;;;;5050518;28;20624;-69
2022/07/28 12:30:50;;;;;;;3.73;3.37;;;28.70;94.10;;;;;;5050478;28;20516;-69
2022/07/28 12:33:19;;;;;;;3.90;3.50;;;28.80;93.70;;;;;;5051099;28;20456;-69
2022/07/28 12:35:50;;;;;;;3.50;3.20;;;28.80;93.40;;;;;;5050278;28;20480;-69
2022/07/28 12:38:17;;;;;;;4.87;3.10;;;28.60;93.50;;;;;;5050556;28;20534;-69
2022/07/28 12:40:45;;;;;;;2.97;2.77;;;28.50;93.00;;;;;;5050423;28;20468;-69
2022/07/28 12:43:12;;;;;;;4.03;3.60;;;28.40;94.30;;;;;;5050268;28;20961;-69
2022/07/28 12:45:44;;;;;;;2.97;2.77;;;28.50;93.30;;;;;;5050956;28;20513;-68
2022/07/28 12:48:12;;;;;;;3.27;2.93;;;28.50;93.00;;;;;;5048698;28;20465;-69
2022/07/28 12:50:39;;;;;;;3.00;2.67;;;28.50;94.00;;;;;;5049564;28;20466;-69
2022/07/28 12:53:09;;;;;;;2.93;2.70;;;28.60;93.10;;;;;;5048259;28;20452;-69
2022/07/28 12:55:36;;;;;;;3.53;3.23;;;28.50;93.80;;;;;;5048741;28;21231;-69
2022/07/28 12:58:04;;;;;;;4.10;2.93;;;28.50;93.10;;;;;;5049041;28;20455;-68